sensor_id;sensor_type;location;lat;lon;timestamp;P1;durP1;ratioP1;P2;durP2;ratioP2
50531;SDS011;36483;37.396;-122.212;2023-05-19T00:00:15;5.80;;;1.58;;
50531;SDS011;36483;37.396;-122.212;2023-05-19T00:02:43;5.68;;;1.70;;
50531;SDS011;36483;37.396;-122.212;2023-05-19T00:05:10;4.15;;;1.40;;
50531;SDS011;36483;37.396;-122.212;2023-05-19T00:07:39;7.00;;;1.40;;
50531;SDS011;36483;37.396;-122.212;2023-05-19T00:10:06;4.05;;;1.67;;
50531;SDS011;36483;37.396;-122.212;2023-05-19T00:12:33;3.45;;;1.70;;
50531;SDS011;36483;37.396;-122.212;2023-05-19T00:14:59;3.50;;;1.67;;
50531;SDS011;36483;37.396;-122.212;2023-05-19T00:17:26;4.95;;;1.92;;
50531;SDS011;36483;37.396;-122.212;2023-05-19T00:19:52;6.10;;;1.70;;
50531;SDS011;36483;37.396;-122.212;2023-05-19T00:22:18;6.53;;;1.90;;
50531;SDS011;36483;37.396;-122.212;2023-05-19T00:24:45;3.40;;;1.50;;
50531;SDS011;36483;37.396;-122.212;2023-05-19T00:27:11;4.40;;;1.58;;
50531;SDS011;36483;37.396;-122.212;2023-05-19T00:29:37;4.70;;;1.80;;
50531;SDS011;36483;37.396;-122.212;2023-05-19T00:32:03;5.07;;;1.48;;
50531;SDS011;36483;37.396;-122.212;2023-05-19T00:34:30;5.50;;;1.75;;
50531;SDS011;36483;37.396;-122.212;2023-05-19T00:36:56;4.93;;;1.70;;
50531;SDS011;36483;37.396;-122.212;2023-05-19T00:39:22;6.60;;;1.80;;
50531;SDS011;36483;37.396;-122.212;2023-05-19T00:41:48;4.63;;;1.67;;
50531;SDS011;36483;37.396;-122.212;2023-05-19T00:44:14;7.15;;;1.65;;
50531;SDS011;36483;37.396;-122.212;2023-05-19T00:46:40;3.70;;;1.48;;
50531;SDS011;36483;37.396;-122.212;2023-05-19T00:49:06;7.47;;;2.15;;
50531;SDS011;36483;37.396;-122.212;2023-05-19T00:51:33;7.38;;;2.22;;
50531;SDS011;36483;37.396;-122.212;2023-05-19T00:53:59;4.43;;;1.73;;
50531;SDS011;36483;37.396;-122.212;2023-05-19T00:56:25;5.25;;;1.73;;
50531;SDS011;36483;37.396;-122.212;2023-05-19T00:58:51;6.53;;;2.10;;
50531;SDS011;36483;37.396;-122.212;2023-05-19T01:01:18;5.28;;;2.13;;
50531;SDS011;36483;37.396;-122.212;2023-05-19T01:03:45;4.63;;;1.98;;
50531;SDS011;36483;37.396;-122.212;2023-05-19T01:06:12;5.55;;;1.70;;
50531;SDS011;36483;37.396;-122.212;2023-05-19T01:08:39;3.70;;;1.80;;
50531;SDS011;36483;37.396;-122.212;2023-05-19T01:11:05;7.63;;;1.80;;
50531;SDS011;36483;37.396;-122.212;2023-05-19T01:13:32;4.43;;;1.70;;
50531;SDS011;36483;37.396;-122.212;2023-05-19T01:21:43;3.95;;;1.90;;
50531;SDS011;36483;37.396;-122.212;2023-05-19T01:30:24;4.82;;;1.73;;
50531;SDS011;36483;37.396;-122.212;2023-05-19T01:33:09;5.47;;;1.77;;
50531;SDS011;36483;37.396;-122.212;2023-05-19T01:35:38;5.72;;;1.88;;
50531;SDS011;36483;37.396;-122.212;2023-05-19T01:38:09;5.25;;;1.95;;
50531;SDS011;36483;37.396;-122.212;2023-05-19T01:40:39;4.85;;;1.90;;
50531;SDS011;36483;37.396;-122.212;2023-05-19T01:43:06;5.38;;;1.70;;
50531;SDS011;36483;37.396;-122.212;2023-05-19T01:45:35;7.45;;;2.30;;
50531;SDS011;36483;37.396;-122.212;2023-05-19T01:48:02;6.75;;;2.10;;
50531;SDS011;36483;37.396;-122.212;2023-05-19T01:50:29;4.72;;;1.65;;
50531;SDS011;36483;37.396;-122.212;2023-05-19T01:52:56;6.70;;;1.85;;
50531;SDS011;36483;37.396;-122.212;2023-05-19T01:55:22;5.00;;;1.73;;
50531;SDS011;36483;37.396;-122.212;2023-05-19T01:57:52;5.80;;;2.00;;
50531;SDS011;36483;37.396;-122.212;2023-05-19T02:03:41;5.00;;;1.80;;
50531;SDS011;36483;37.396;-122.212;2023-05-19T02:06:29;8.77;;;2.10;;
50531;SDS011;36483;37.396;-122.212;2023-05-19T02:14:40;8.18;;;1.90;;
50531;SDS011;36483;37.396;-122.212;2023-05-19T02:17:12;7.13;;;1.88;;
50531;SDS011;36483;37.396;-122.212;2023-05-19T02:19:40;6.78;;;2.10;;
50531;SDS011;36483;37.396;-122.212;2023-05-19T02:22:08;7.25;;;2.20;;
50531;SDS011;36483;37.396;-122.212;2023-05-19T02:24:34;7.03;;;2.15;;
50531;SDS011;36483;37.396;-122.212;2023-05-19T02:27:02;4.40;;;1.75;;
50531;SDS011;36483;37.396;-122.212;2023-05-19T02:29:28;9.65;;;2.10;;
50531;SDS011;36483;37.396;-122.212;2023-05-19T02:31:54;6.70;;;1.95;;
50531;SDS011;36483;37.396;-122.212;2023-05-19T02:34:20;4.45;;;1.90;;
50531;SDS011;36483;37.396;-122.212;2023-05-19T02:36:47;4.90;;;1.67;;
50531;SDS011;36483;37.396;-122.212;2023-05-19T02:39:15;7.03;;;2.15;;
50531;SDS011;36483;37.396;-122.212;2023-05-19T02:41:42;5.28;;;1.75;;
50531;SDS011;36483;37.396;-122.212;2023-05-19T02:44:08;6.70;;;2.17;;
50531;SDS011;36483;37.396;-122.212;2023-05-19T02:46:34;6.68;;;2.00;;
50531;SDS011;36483;37.396;-122.212;2023-05-19T02:49:00;7.10;;;2.10;;
50531;SDS011;36483;37.396;-122.212;2023-05-19T02:51:46;11.20;;;2.33;;
50531;SDS011;36483;37.396;-122.212;2023-05-19T02:54:12;5.75;;;1.95;;
50531;SDS011;36483;37.396;-122.212;2023-05-19T02:56:38;8.45;;;2.20;;
50531;SDS011;36483;37.396;-122.212;2023-05-19T02:59:05;7.70;;;2.00;;
50531;SDS011;36483;37.396;-122.212;2023-05-19T03:01:31;7.30;;;1.92;;
50531;SDS011;36483;37.396;-122.212;2023-05-19T03:03:57;7.78;;;2.22;;
50531;SDS011;36483;37.396;-122.212;2023-05-19T03:06:24;4.97;;;1.75;;
50531;SDS011;36483;37.396;-122.212;2023-05-19T03:08:50;4.47;;;1.92;;
50531;SDS011;36483;37.396;-122.212;2023-05-19T03:11:16;6.45;;;2.13;;
50531;SDS011;36483;37.396;-122.212;2023-05-19T03:13:42;8.05;;;2.25;;
50531;SDS011;36483;37.396;-122.212;2023-05-19T03:16:08;6.10;;;2.35;;
50531;SDS011;36483;37.396;-122.212;2023-05-19T03:18:36;6.57;;;2.17;;
50531;SDS011;36483;37.396;-122.212;2023-05-19T03:21:03;6.75;;;2.13;;
50531;SDS011;36483;37.396;-122.212;2023-05-19T03:23:29;6.57;;;2.15;;
50531;SDS011;36483;37.396;-122.212;2023-05-19T03:25:55;7.85;;;2.20;;
50531;SDS011;36483;37.396;-122.212;2023-05-19T03:28:21;7.32;;;2.13;;
50531;SDS011;36483;37.396;-122.212;2023-05-19T03:30:47;6.88;;;2.40;;
50531;SDS011;36483;37.396;-122.212;2023-05-19T03:33:16;7.38;;;2.70;;
50531;SDS011;36483;37.396;-122.212;2023-05-19T03:35:43;7.95;;;2.60;;
50531;SDS011;36483;37.396;-122.212;2023-05-19T03:38:09;7.55;;;2.50;;
50531;SDS011;36483;37.396;-122.212;2023-05-19T03:40:35;5.82;;;2.42;;
50531;SDS011;36483;37.396;-122.212;2023-05-19T03:43:01;9.48;;;2.38;;
50531;SDS011;36483;37.396;-122.212;2023-05-19T03:45:27;7.68;;;2.67;;
50531;SDS011;36483;37.396;-122.212;2023-05-19T03:47:54;10.95;;;2.80;;
50531;SDS011;36483;37.396;-122.212;2023-05-19T03:50:21;7.75;;;2.42;;
50531;SDS011;36483;37.396;-122.212;2023-05-19T03:52:47;7.90;;;2.58;;
50531;SDS011;36483;37.396;-122.212;2023-05-19T03:55:13;9.90;;;2.78;;
50531;SDS011;36483;37.396;-122.212;2023-05-19T03:57:40;5.90;;;2.28;;
50531;SDS011;36483;37.396;-122.212;2023-05-19T04:00:10;7.28;;;2.25;;
50531;SDS011;36483;37.396;-122.212;2023-05-19T04:02:36;7.53;;;2.45;;
50531;SDS011;36483;37.396;-122.212;2023-05-19T04:05:03;10.25;;;2.97;;
50531;SDS011;36483;37.396;-122.212;2023-05-19T04:07:29;8.20;;;2.40;;
50531;SDS011;36483;37.396;-122.212;2023-05-19T04:09:56;7.43;;;2.80;;
50531;SDS011;36483;37.396;-122.212;2023-05-19T04:12:22;7.68;;;2.90;;
50531;SDS011;36483;37.396;-122.212;2023-05-19T04:14:48;7.57;;;2.70;;
50531;SDS011;36483;37.396;-122.212;2023-05-19T04:17:14;9.70;;;2.70;;
50531;SDS011;36483;37.396;-122.212;2023-05-19T04:19:40;6.72;;;2.63;;
50531;SDS011;36483;37.396;-122.212;2023-05-19T04:22:07;10.05;;;2.95;;
50531;SDS011;36483;37.396;-122.212;2023-05-19T04:24:33;9.38;;;2.63;;
50531;SDS011;36483;37.396;-122.212;2023-05-19T04:26:59;11.13;;;3.00;;
50531;SDS011;36483;37.396;-122.212;2023-05-19T04:29:29;11.05;;;2.70;;
50531;SDS011;36483;37.396;-122.212;2023-05-19T04:31:56;6.80;;;2.53;;
50531;SDS011;36483;37.396;-122.212;2023-05-19T04:34:22;7.88;;;2.88;;
50531;SDS011;36483;37.396;-122.212;2023-05-19T04:36:48;8.85;;;3.00;;
50531;SDS011;36483;37.396;-122.212;2023-05-19T04:39:15;7.47;;;2.63;;
50531;SDS011;36483;37.396;-122.212;2023-05-19T04:41:41;10.77;;;2.75;;
50531;SDS011;36483;37.396;-122.212;2023-05-19T04:44:08;8.65;;;2.50;;
50531;SDS011;36483;37.396;-122.212;2023-05-19T04:46:35;9.40;;;2.83;;
50531;SDS011;36483;37.396;-122.212;2023-05-19T04:49:01;8.50;;;2.67;;
50531;SDS011;36483;37.396;-122.212;2023-05-19T04:51:27;8.15;;;2.78;;
50531;SDS011;36483;37.396;-122.212;2023-05-19T04:53:55;7.88;;;2.67;;
50531;SDS011;36483;37.396;-122.212;2023-05-19T04:56:22;8.63;;;2.75;;
50531;SDS011;36483;37.396;-122.212;2023-05-19T04:58:48;9.82;;;3.15;;
50531;SDS011;36483;37.396;-122.212;2023-05-19T05:01:15;7.10;;;2.55;;
50531;SDS011;36483;37.396;-122.212;2023-05-19T05:03:41;6.93;;;2.75;;
50531;SDS011;36483;37.396;-122.212;2023-05-19T05:06:07;8.25;;;2.60;;
50531;SDS011;36483;37.396;-122.212;2023-05-19T05:08:33;10.48;;;2.88;;
50531;SDS011;36483;37.396;-122.212;2023-05-19T05:11:01;9.13;;;2.88;;
50531;SDS011;36483;37.396;-122.212;2023-05-19T05:13:28;9.85;;;3.10;;
50531;SDS011;36483;37.396;-122.212;2023-05-19T05:15:54;8.95;;;2.75;;
50531;SDS011;36483;37.396;-122.212;2023-05-19T05:18:21;9.70;;;2.72;;
50531;SDS011;36483;37.396;-122.212;2023-05-19T05:20:47;6.80;;;3.00;;
50531;SDS011;36483;37.396;-122.212;2023-05-19T05:23:14;10.60;;;2.70;;
50531;SDS011;36483;37.396;-122.212;2023-05-19T05:25:41;8.65;;;3.25;;
50531;SDS011;36483;37.396;-122.212;2023-05-19T05:28:08;8.15;;;2.60;;
50531;SDS011;36483;37.396;-122.212;2023-05-19T05:30:34;8.50;;;2.70;;
50531;SDS011;36483;37.396;-122.212;2023-05-19T05:33:00;9.52;;;3.17;;
50531;SDS011;36483;37.396;-122.212;2023-05-19T05:35:27;7.35;;;2.92;;
50531;SDS011;36483;37.396;-122.212;2023-05-19T05:37:53;9.15;;;2.83;;
50531;SDS011;36483;37.396;-122.212;2023-05-19T05:40:20;9.55;;;2.70;;
50531;SDS011;36483;37.396;-122.212;2023-05-19T05:42:46;7.95;;;3.28;;
50531;SDS011;36483;37.396;-122.212;2023-05-19T05:45:12;7.70;;;2.92;;
50531;SDS011;36483;37.396;-122.212;2023-05-19T05:47:39;8.70;;;2.92;;
50531;SDS011;36483;37.396;-122.212;2023-05-19T05:50:07;7.25;;;2.85;;
50531;SDS011;36483;37.396;-122.212;2023-05-19T05:52:34;11.15;;;2.88;;
50531;SDS011;36483;37.396;-122.212;2023-05-19T05:55:02;8.38;;;2.60;;
50531;SDS011;36483;37.396;-122.212;2023-05-19T05:57:30;7.22;;;2.80;;
50531;SDS011;36483;37.396;-122.212;2023-05-19T05:59:59;7.47;;;3.17;;
50531;SDS011;36483;37.396;-122.212;2023-05-19T06:02:25;7.68;;;2.80;;
50531;SDS011;36483;37.396;-122.212;2023-05-19T06:04:52;6.35;;;2.65;;
50531;SDS011;36483;37.396;-122.212;2023-05-19T06:07:18;8.77;;;2.97;;
50531;SDS011;36483;37.396;-122.212;2023-05-19T06:09:48;7.38;;;2.83;;
50531;SDS011;36483;37.396;-122.212;2023-05-19T06:12:14;9.70;;;2.70;;
50531;SDS011;36483;37.396;-122.212;2023-05-19T06:14:40;8.85;;;2.83;;
50531;SDS011;36483;37.396;-122.212;2023-05-19T06:17:06;8.40;;;2.63;;
50531;SDS011;36483;37.396;-122.212;2023-05-19T06:19:36;8.85;;;3.20;;
50531;SDS011;36483;37.396;-122.212;2023-05-19T06:22:02;10.27;;;2.80;;
50531;SDS011;36483;37.396;-122.212;2023-05-19T06:24:28;7.93;;;2.72;;
50531;SDS011;36483;37.396;-122.212;2023-05-19T06:26:54;7.75;;;2.80;;
50531;SDS011;36483;37.396;-122.212;2023-05-19T06:29:20;7.68;;;2.95;;
50531;SDS011;36483;37.396;-122.212;2023-05-19T06:31:46;8.43;;;2.83;;
50531;SDS011;36483;37.396;-122.212;2023-05-19T06:34:13;10.50;;;3.40;;
50531;SDS011;36483;37.396;-122.212;2023-05-19T06:36:41;10.05;;;3.17;;
50531;SDS011;36483;37.396;-122.212;2023-05-19T06:39:07;8.27;;;2.83;;
50531;SDS011;36483;37.396;-122.212;2023-05-19T06:41:34;12.70;;;3.35;;
50531;SDS011;36483;37.396;-122.212;2023-05-19T06:44:00;8.80;;;3.17;;
50531;SDS011;36483;37.396;-122.212;2023-05-19T06:46:26;7.32;;;2.85;;
50531;SDS011;36483;37.396;-122.212;2023-05-19T06:48:52;6.35;;;2.90;;
50531;SDS011;36483;37.396;-122.212;2023-05-19T06:51:18;7.05;;;2.72;;
50531;SDS011;36483;37.396;-122.212;2023-05-19T06:53:49;10.20;;;3.00;;
50531;SDS011;36483;37.396;-122.212;2023-05-19T06:56:15;10.50;;;2.97;;
50531;SDS011;36483;37.396;-122.212;2023-05-19T06:58:43;8.38;;;3.28;;
50531;SDS011;36483;37.396;-122.212;2023-05-19T07:01:10;6.70;;;2.80;;
50531;SDS011;36483;37.396;-122.212;2023-05-19T07:03:36;8.98;;;3.00;;
50531;SDS011;36483;37.396;-122.212;2023-05-19T07:06:02;9.15;;;2.95;;
50531;SDS011;36483;37.396;-122.212;2023-05-19T07:08:28;8.23;;;3.30;;
50531;SDS011;36483;37.396;-122.212;2023-05-19T07:10:54;7.13;;;2.95;;
50531;SDS011;36483;37.396;-122.212;2023-05-19T07:13:21;10.50;;;3.22;;
50531;SDS011;36483;37.396;-122.212;2023-05-19T07:15:47;13.65;;;3.42;;
50531;SDS011;36483;37.396;-122.212;2023-05-19T07:18:13;8.45;;;2.92;;
50531;SDS011;36483;37.396;-122.212;2023-05-19T07:20:40;7.53;;;3.05;;
50531;SDS011;36483;37.396;-122.212;2023-05-19T07:23:06;7.63;;;3.03;;
50531;SDS011;36483;37.396;-122.212;2023-05-19T07:25:32;9.27;;;3.13;;
50531;SDS011;36483;37.396;-122.212;2023-05-19T07:27:58;10.02;;;3.22;;
50531;SDS011;36483;37.396;-122.212;2023-05-19T07:30:27;9.23;;;3.03;;
50531;SDS011;36483;37.396;-122.212;2023-05-19T07:32:54;11.65;;;3.50;;
50531;SDS011;36483;37.396;-122.212;2023-05-19T07:35:20;9.10;;;3.22;;
50531;SDS011;36483;37.396;-122.212;2023-05-19T07:37:50;9.30;;;3.00;;
50531;SDS011;36483;37.396;-122.212;2023-05-19T07:40:16;6.68;;;3.10;;
50531;SDS011;36483;37.396;-122.212;2023-05-19T07:42:43;7.82;;;3.35;;
50531;SDS011;36483;37.396;-122.212;2023-05-19T07:45:09;9.93;;;3.53;;
50531;SDS011;36483;37.396;-122.212;2023-05-19T07:47:36;5.80;;;2.85;;
50531;SDS011;36483;37.396;-122.212;2023-05-19T07:50:02;8.15;;;3.53;;
50531;SDS011;36483;37.396;-122.212;2023-05-19T07:52:28;6.55;;;2.80;;
50531;SDS011;36483;37.396;-122.212;2023-05-19T07:54:54;9.50;;;3.20;;
50531;SDS011;36483;37.396;-122.212;2023-05-19T07:57:21;10.35;;;3.33;;
50531;SDS011;36483;37.396;-122.212;2023-05-19T07:59:47;9.13;;;3.38;;
50531;SDS011;36483;37.396;-122.212;2023-05-19T08:02:13;9.65;;;3.30;;
50531;SDS011;36483;37.396;-122.212;2023-05-19T08:04:39;7.78;;;2.97;;
50531;SDS011;36483;37.396;-122.212;2023-05-19T08:07:05;9.30;;;3.55;;
50531;SDS011;36483;37.396;-122.212;2023-05-19T08:09:31;9.02;;;3.40;;
50531;SDS011;36483;37.396;-122.212;2023-05-19T08:11:57;8.45;;;3.30;;
50531;SDS011;36483;37.396;-122.212;2023-05-19T08:14:25;8.07;;;3.30;;
50531;SDS011;36483;37.396;-122.212;2023-05-19T08:16:52;9.25;;;3.20;;
50531;SDS011;36483;37.396;-122.212;2023-05-19T08:19:18;10.73;;;3.65;;
50531;SDS011;36483;37.396;-122.212;2023-05-19T08:21:44;7.53;;;3.10;;
50531;SDS011;36483;37.396;-122.212;2023-05-19T08:24:10;7.25;;;2.90;;
50531;SDS011;36483;37.396;-122.212;2023-05-19T08:26:36;10.32;;;3.30;;
50531;SDS011;36483;37.396;-122.212;2023-05-19T08:29:02;6.97;;;2.83;;
50531;SDS011;36483;37.396;-122.212;2023-05-19T08:31:28;9.02;;;3.10;;
50531;SDS011;36483;37.396;-122.212;2023-05-19T08:33:55;7.05;;;3.35;;
50531;SDS011;36483;37.396;-122.212;2023-05-19T08:36:21;9.43;;;3.15;;
50531;SDS011;36483;37.396;-122.212;2023-05-19T08:38:47;5.65;;;2.90;;
50531;SDS011;36483;37.396;-122.212;2023-05-19T08:41:13;8.73;;;2.95;;
50531;SDS011;36483;37.396;-122.212;2023-05-19T08:43:40;9.77;;;3.47;;
50531;SDS011;36483;37.396;-122.212;2023-05-19T08:46:07;8.50;;;2.78;;
50531;SDS011;36483;37.396;-122.212;2023-05-19T08:48:36;8.80;;;3.30;;
50531;SDS011;36483;37.396;-122.212;2023-05-19T08:51:16;8.00;;;3.27;;
50531;SDS011;36483;37.396;-122.212;2023-05-19T08:53:49;8.18;;;2.80;;
50531;SDS011;36483;37.396;-122.212;2023-05-19T08:56:18;9.15;;;3.10;;
50531;SDS011;36483;37.396;-122.212;2023-05-19T08:58:49;7.82;;;3.30;;
50531;SDS011;36483;37.396;-122.212;2023-05-19T09:01:16;12.90;;;3.53;;
50531;SDS011;36483;37.396;-122.212;2023-05-19T09:03:43;7.25;;;3.15;;
50531;SDS011;36483;37.396;-122.212;2023-05-19T09:06:11;11.23;;;3.17;;
50531;SDS011;36483;37.396;-122.212;2023-05-19T09:08:37;8.75;;;3.28;;
50531;SDS011;36483;37.396;-122.212;2023-05-19T09:11:04;6.82;;;3.17;;
50531;SDS011;36483;37.396;-122.212;2023-05-19T09:13:31;11.27;;;3.15;;
50531;SDS011;36483;37.396;-122.212;2023-05-19T09:15:57;7.50;;;3.08;;
50531;SDS011;36483;37.396;-122.212;2023-05-19T09:18:24;9.48;;;3.22;;
50531;SDS011;36483;37.396;-122.212;2023-05-19T09:20:54;7.47;;;3.00;;
50531;SDS011;36483;37.396;-122.212;2023-05-19T09:23:28;8.73;;;3.30;;
50531;SDS011;36483;37.396;-122.212;2023-05-19T09:26:01;7.88;;;3.03;;
50531;SDS011;36483;37.396;-122.212;2023-05-19T09:28:29;7.53;;;3.00;;
50531;SDS011;36483;37.396;-122.212;2023-05-19T09:31:07;7.07;;;3.30;;
50531;SDS011;36483;37.396;-122.212;2023-05-19T09:33:34;8.40;;;3.05;;
50531;SDS011;36483;37.396;-122.212;2023-05-19T09:36:05;9.02;;;3.08;;
50531;SDS011;36483;37.396;-122.212;2023-05-19T09:38:33;8.70;;;3.38;;
50531;SDS011;36483;37.396;-122.212;2023-05-19T09:41:00;8.00;;;3.10;;
50531;SDS011;36483;37.396;-122.212;2023-05-19T09:43:27;8.23;;;3.20;;
50531;SDS011;36483;37.396;-122.212;2023-05-19T09:48:30;6.90;;;2.88;;
50531;SDS011;36483;37.396;-122.212;2023-05-19T09:50:56;7.88;;;3.40;;
50531;SDS011;36483;37.396;-122.212;2023-05-19T09:53:24;9.02;;;3.08;;
50531;SDS011;36483;37.396;-122.212;2023-05-19T09:55:53;9.55;;;3.20;;
50531;SDS011;36483;37.396;-122.212;2023-05-19T09:58:23;11.38;;;3.38;;
50531;SDS011;36483;37.396;-122.212;2023-05-19T10:00:50;9.35;;;3.63;;
50531;SDS011;36483;37.396;-122.212;2023-05-19T10:03:19;8.02;;;2.78;;
50531;SDS011;36483;37.396;-122.212;2023-05-19T10:05:47;8.80;;;2.95;;
50531;SDS011;36483;37.396;-122.212;2023-05-19T10:08:14;10.77;;;3.20;;
50531;SDS011;36483;37.396;-122.212;2023-05-19T10:10:43;9.23;;;3.03;;
50531;SDS011;36483;37.396;-122.212;2023-05-19T10:13:11;6.85;;;2.92;;
50531;SDS011;36483;37.396;-122.212;2023-05-19T10:15:39;7.15;;;3.15;;
50531;SDS011;36483;37.396;-122.212;2023-05-19T10:18:07;7.03;;;3.15;;
50531;SDS011;36483;37.396;-122.212;2023-05-19T10:20:35;8.55;;;3.03;;
50531;SDS011;36483;37.396;-122.212;2023-05-19T10:23:01;6.25;;;2.80;;
50531;SDS011;36483;37.396;-122.212;2023-05-19T10:25:31;7.35;;;3.17;;
50531;SDS011;36483;37.396;-122.212;2023-05-19T10:28:19;10.07;;;3.42;;
50531;SDS011;36483;37.396;-122.212;2023-05-19T10:30:49;6.00;;;2.92;;
50531;SDS011;36483;37.396;-122.212;2023-05-19T10:33:18;8.40;;;3.15;;
50531;SDS011;36483;37.396;-122.212;2023-05-19T10:38:47;8.43;;;3.42;;
50531;SDS011;36483;37.396;-122.212;2023-05-19T10:41:26;7.60;;;2.90;;
50531;SDS011;36483;37.396;-122.212;2023-05-19T10:46:28;8.13;;;2.92;;
50531;SDS011;36483;37.396;-122.212;2023-05-19T10:49:21;7.05;;;3.53;;
50531;SDS011;36483;37.396;-122.212;2023-05-19T10:51:47;8.48;;;3.38;;
50531;SDS011;36483;37.396;-122.212;2023-05-19T10:54:14;8.98;;;3.33;;
50531;SDS011;36483;37.396;-122.212;2023-05-19T10:56:42;8.15;;;3.08;;
50531;SDS011;36483;37.396;-122.212;2023-05-19T10:59:30;7.80;;;2.95;;
50531;SDS011;36483;37.396;-122.212;2023-05-19T11:02:02;8.93;;;3.15;;
50531;SDS011;36483;37.396;-122.212;2023-05-19T11:04:48;8.38;;;3.28;;
50531;SDS011;36483;37.396;-122.212;2023-05-19T11:07:18;6.85;;;2.90;;
50531;SDS011;36483;37.396;-122.212;2023-05-19T11:09:50;7.93;;;3.25;;
50531;SDS011;36483;37.396;-122.212;2023-05-19T11:12:20;9.13;;;3.13;;
50531;SDS011;36483;37.396;-122.212;2023-05-19T11:14:52;12.73;;;3.35;;
50531;SDS011;36483;37.396;-122.212;2023-05-19T11:17:19;7.32;;;3.42;;
50531;SDS011;36483;37.396;-122.212;2023-05-19T11:19:56;6.50;;;2.92;;
50531;SDS011;36483;37.396;-122.212;2023-05-19T11:22:27;5.60;;;2.78;;
50531;SDS011;36483;37.396;-122.212;2023-05-19T11:24:53;7.18;;;2.92;;
50531;SDS011;36483;37.396;-122.212;2023-05-19T11:29:49;9.60;;;3.05;;
50531;SDS011;36483;37.396;-122.212;2023-05-19T11:32:22;7.70;;;3.13;;
50531;SDS011;36483;37.396;-122.212;2023-05-19T11:34:51;9.40;;;3.03;;
50531;SDS011;36483;37.396;-122.212;2023-05-19T11:37:18;7.70;;;3.13;;
50531;SDS011;36483;37.396;-122.212;2023-05-19T11:39:44;7.53;;;2.50;;
50531;SDS011;36483;37.396;-122.212;2023-05-19T11:42:11;7.85;;;2.85;;
50531;SDS011;36483;37.396;-122.212;2023-05-19T11:44:38;6.03;;;2.92;;
50531;SDS011;36483;37.396;-122.212;2023-05-19T11:47:06;5.28;;;2.80;;
50531;SDS011;36483;37.396;-122.212;2023-05-19T11:49:32;6.65;;;3.22;;
50531;SDS011;36483;37.396;-122.212;2023-05-19T11:51:59;7.18;;;2.88;;
50531;SDS011;36483;37.396;-122.212;2023-05-19T11:54:31;6.82;;;2.92;;
50531;SDS011;36483;37.396;-122.212;2023-05-19T11:57:03;7.10;;;2.85;;
50531;SDS011;36483;37.396;-122.212;2023-05-19T11:59:33;8.23;;;3.20;;
50531;SDS011;36483;37.396;-122.212;2023-05-19T12:02:01;6.88;;;2.78;;
50531;SDS011;36483;37.396;-122.212;2023-05-19T12:04:49;7.18;;;3.28;;
50531;SDS011;36483;37.396;-122.212;2023-05-19T12:07:17;8.65;;;2.97;;
50531;SDS011;36483;37.396;-122.212;2023-05-19T12:09:44;6.70;;;3.00;;
50531;SDS011;36483;37.396;-122.212;2023-05-19T12:12:18;6.78;;;2.95;;
50531;SDS011;36483;37.396;-122.212;2023-05-19T12:14:45;6.00;;;2.95;;
50531;SDS011;36483;37.396;-122.212;2023-05-19T12:17:12;7.95;;;2.80;;
50531;SDS011;36483;37.396;-122.212;2023-05-19T12:22:10;7.45;;;3.03;;
50531;SDS011;36483;37.396;-122.212;2023-05-19T12:24:37;7.93;;;2.72;;
50531;SDS011;36483;37.396;-122.212;2023-05-19T12:27:04;8.63;;;2.80;;
50531;SDS011;36483;37.396;-122.212;2023-05-19T12:29:42;7.53;;;2.70;;
50531;SDS011;36483;37.396;-122.212;2023-05-19T12:32:15;5.05;;;2.55;;
50531;SDS011;36483;37.396;-122.212;2023-05-19T12:34:42;8.35;;;3.08;;
50531;SDS011;36483;37.396;-122.212;2023-05-19T12:37:09;7.95;;;3.00;;
50531;SDS011;36483;37.396;-122.212;2023-05-19T12:39:35;6.38;;;2.55;;
50531;SDS011;36483;37.396;-122.212;2023-05-19T12:44:29;7.00;;;2.92;;
50531;SDS011;36483;37.396;-122.212;2023-05-19T12:46:57;7.22;;;2.63;;
50531;SDS011;36483;37.396;-122.212;2023-05-19T12:49:24;7.00;;;2.60;;
50531;SDS011;36483;37.396;-122.212;2023-05-19T12:51:53;8.45;;;3.38;;
50531;SDS011;36483;37.396;-122.212;2023-05-19T12:54:19;8.32;;;3.03;;
50531;SDS011;36483;37.396;-122.212;2023-05-19T12:56:50;7.15;;;2.92;;
50531;SDS011;36483;37.396;-122.212;2023-05-19T12:59:20;8.98;;;3.20;;
50531;SDS011;36483;37.396;-122.212;2023-05-19T13:01:56;5.85;;;2.55;;
50531;SDS011;36483;37.396;-122.212;2023-05-19T13:04:23;5.82;;;2.97;;
50531;SDS011;36483;37.396;-122.212;2023-05-19T13:06:50;7.80;;;2.90;;
50531;SDS011;36483;37.396;-122.212;2023-05-19T13:09:17;7.28;;;3.20;;
50531;SDS011;36483;37.396;-122.212;2023-05-19T13:11:44;6.93;;;3.58;;
50531;SDS011;36483;37.396;-122.212;2023-05-19T13:14:16;8.98;;;3.33;;
50531;SDS011;36483;37.396;-122.212;2023-05-19T13:16:45;7.03;;;3.00;;
50531;SDS011;36483;37.396;-122.212;2023-05-19T13:19:18;6.55;;;3.10;;
50531;SDS011;36483;37.396;-122.212;2023-05-19T13:21:44;7.97;;;3.28;;
50531;SDS011;36483;37.396;-122.212;2023-05-19T13:24:15;6.90;;;3.13;;
50531;SDS011;36483;37.396;-122.212;2023-05-19T13:26:41;8.73;;;3.55;;
50531;SDS011;36483;37.396;-122.212;2023-05-19T13:29:07;7.70;;;3.33;;
50531;SDS011;36483;37.396;-122.212;2023-05-19T13:31:33;5.70;;;2.55;;
50531;SDS011;36483;37.396;-122.212;2023-05-19T13:34:01;10.15;;;3.30;;
50531;SDS011;36483;37.396;-122.212;2023-05-19T13:36:27;7.72;;;3.80;;
50531;SDS011;36483;37.396;-122.212;2023-05-19T13:38:53;6.45;;;3.40;;
50531;SDS011;36483;37.396;-122.212;2023-05-19T13:41:22;6.75;;;3.60;;
50531;SDS011;36483;37.396;-122.212;2023-05-19T13:43:54;7.13;;;3.60;;
50531;SDS011;36483;37.396;-122.212;2023-05-19T13:46:25;6.78;;;3.50;;
50531;SDS011;36483;37.396;-122.212;2023-05-19T13:48:51;7.18;;;3.17;;
50531;SDS011;36483;37.396;-122.212;2023-05-19T13:51:17;7.63;;;3.47;;
50531;SDS011;36483;37.396;-122.212;2023-05-19T13:53:44;7.60;;;3.63;;
50531;SDS011;36483;37.396;-122.212;2023-05-19T13:56:10;7.38;;;3.83;;
50531;SDS011;36483;37.396;-122.212;2023-05-19T13:58:36;9.95;;;3.70;;
50531;SDS011;36483;37.396;-122.212;2023-05-19T14:01:02;10.43;;;3.90;;
50531;SDS011;36483;37.396;-122.212;2023-05-19T14:03:29;10.30;;;3.75;;
50531;SDS011;36483;37.396;-122.212;2023-05-19T14:05:55;6.90;;;3.60;;
50531;SDS011;36483;37.396;-122.212;2023-05-19T14:08:21;8.90;;;4.03;;
50531;SDS011;36483;37.396;-122.212;2023-05-19T14:10:49;10.02;;;3.92;;
50531;SDS011;36483;37.396;-122.212;2023-05-19T14:13:15;7.63;;;3.75;;
50531;SDS011;36483;37.396;-122.212;2023-05-19T14:15:41;6.97;;;3.80;;
50531;SDS011;36483;37.396;-122.212;2023-05-19T14:18:08;10.65;;;3.92;;
50531;SDS011;36483;37.396;-122.212;2023-05-19T14:20:34;12.60;;;3.90;;
50531;SDS011;36483;37.396;-122.212;2023-05-19T14:23:00;7.45;;;3.63;;
50531;SDS011;36483;37.396;-122.212;2023-05-19T14:25:27;10.15;;;3.95;;
50531;SDS011;36483;37.396;-122.212;2023-05-19T14:27:53;8.93;;;4.15;;
50531;SDS011;36483;37.396;-122.212;2023-05-19T14:30:19;8.73;;;3.97;;
50531;SDS011;36483;37.396;-122.212;2023-05-19T14:32:45;10.85;;;4.10;;
50531;SDS011;36483;37.396;-122.212;2023-05-19T14:35:11;12.07;;;4.05;;
50531;SDS011;36483;37.396;-122.212;2023-05-19T14:37:37;12.48;;;4.30;;
50531;SDS011;36483;37.396;-122.212;2023-05-19T14:40:03;10.27;;;4.78;;
50531;SDS011;36483;37.396;-122.212;2023-05-19T14:42:31;9.95;;;4.40;;
50531;SDS011;36483;37.396;-122.212;2023-05-19T14:44:57;10.80;;;4.78;;
50531;SDS011;36483;37.396;-122.212;2023-05-19T14:47:23;11.15;;;4.72;;